sensor_id;sensor_type;location;lat;lon;timestamp;pressure;altitude;pressure_sealevel;temperature;humidity
54270;BME280;40181;51.560;13.000;2023-05-07T00:01:18;101179.47;;;9.86;97.07
54270;BME280;40181;51.560;13.000;2023-05-07T00:03:47;101179.09;;;9.72;97.54
54270;BME280;40181;51.560;13.000;2023-05-07T00:06:16;101182.31;;;9.95;96.62
54270;BME280;40181;51.560;13.000;2023-05-07T00:08:45;101182.50;;;10.03;96.51
54270;BME280;40181;51.560;13.000;2023-05-07T00:11:17;101184.22;;;10.01;96.79
54270;BME280;40181;51.560;13.000;2023-05-07T00:13:47;101184.03;;;9.93;97.01
54270;BME280;40181;51.560;13.000;2023-05-07T00:16:16;101178.91;;;9.98;96.50
54270;BME280;40181;51.560;13.000;2023-05-07T00:18:46;101179.88;;;10.01;96.60
54270;BME280;40181;51.560;13.000;2023-05-07T00:21:15;101172.84;;;10.02;96.81
54270;BME280;40181;51.560;13.000;2023-05-07T00:23:44;101169.25;;;9.98;96.50
54270;BME280;40181;51.560;13.000;2023-05-07T00:26:13;101171.50;;;9.82;97.50
54270;BME280;40181;51.560;13.000;2023-05-07T00:28:45;101163.91;;;9.93;97.20
54270;BME280;40181;51.560;13.000;2023-05-07T00:31:14;101164.00;;;9.98;97.22
54270;BME280;40181;51.560;13.000;2023-05-07T00:33:44;101175.25;;;9.92;97.34
54270;BME280;40181;51.560;13.000;2023-05-07T00:36:13;101168.97;;;9.86;98.44
54270;BME280;40181;51.560;13.000;2023-05-07T00:38:42;101173.53;;;9.94;97.42
54270;BME280;40181;51.560;13.000;2023-05-07T00:41:11;101165.56;;;9.90;98.31
54270;BME280;40181;51.560;13.000;2023-05-07T00:43:43;101175.34;;;9.95;97.55
54270;BME280;40181;51.560;13.000;2023-05-07T00:46:13;101166.97;;;9.77;99.09
54270;BME280;40181;51.560;13.000;2023-05-07T00:48:42;101178.34;;;9.77;99.23
54270;BME280;40181;51.560;13.000;2023-05-07T00:51:11;101175.34;;;9.95;98.01
54270;BME280;40181;51.560;13.000;2023-05-07T00:53:41;101181.19;;;9.85;98.28
54270;BME280;40181;51.560;13.000;2023-05-07T00:56:10;101181.75;;;9.73;99.89
54270;BME280;40181;51.560;13.000;2023-05-07T00:58:43;101186.09;;;9.73;99.33
54270;BME280;40181;51.560;13.000;2023-05-07T01:01:12;101171.66;;;9.89;98.37
54270;BME280;40181;51.560;13.000;2023-05-07T01:03:42;101170.78;;;9.88;98.51
54270;BME280;40181;51.560;13.000;2023-05-07T01:06:11;101171.47;;;9.81;98.76
54270;BME280;40181;51.560;13.000;2023-05-07T01:08:41;101174.16;;;9.84;98.48
54270;BME280;40181;51.560;13.000;2023-05-07T01:11:11;101167.06;;;9.80;99.07
54270;BME280;40181;51.560;13.000;2023-05-07T01:13:43;101173.03;;;9.74;98.78
54270;BME280;40181;51.560;13.000;2023-05-07T01:16:15;101176.75;;;9.82;98.93
54270;BME280;40181;51.560;13.000;2023-05-07T01:18:45;101173.66;;;9.65;99.35
54270;BME280;40181;51.560;13.000;2023-05-07T01:21:16;101186.44;;;9.85;99.22
54270;BME280;40181;51.560;13.000;2023-05-07T01:23:49;101165.91;;;9.70;99.41
54270;BME280;40181;51.560;13.000;2023-05-07T01:26:18;101178.47;;;9.82;99.03
54270;BME280;40181;51.560;13.000;2023-05-07T01:28:49;101169.97;;;9.91;98.77
54270;BME280;40181;51.560;13.000;2023-05-07T01:31:18;101166.72;;;9.67;100.00
54270;BME280;40181;51.560;13.000;2023-05-07T01:33:48;101171.34;;;9.76;99.89
54270;BME280;40181;51.560;13.000;2023-05-07T01:36:20;101169.56;;;9.75;99.29
54270;BME280;40181;51.560;13.000;2023-05-07T01:38:55;101165.91;;;9.70;100.00
54270;BME280;40181;51.560;13.000;2023-05-07T01:41:24;101173.84;;;9.72;100.00
54270;BME280;40181;51.560;13.000;2023-05-07T01:43:56;101166.94;;;9.75;99.52
54270;BME280;40181;51.560;13.000;2023-05-07T01:46:27;101162.78;;;9.83;99.44
54270;BME280;40181;51.560;13.000;2023-05-07T01:48:56;101169.63;;;9.78;100.00
54270;BME280;40181;51.560;13.000;2023-05-07T01:51:25;101171.28;;;9.73;99.58
54270;BME280;40181;51.560;13.000;2023-05-07T01:53:57;101175.44;;;9.66;99.92
54270;BME280;40181;51.560;13.000;2023-05-07T01:56:26;101171.31;;;9.43;100.00
54270;BME280;40181;51.560;13.000;2023-05-07T01:58:55;101192.81;;;9.63;100.00
54270;BME280;40181;51.560;13.000;2023-05-07T02:01:24;101183.19;;;9.62;100.00
54270;BME280;40181;51.560;13.000;2023-05-07T02:03:54;101182.69;;;9.75;100.00
54270;BME280;40181;51.560;13.000;2023-05-07T02:06:23;101185.78;;;9.60;100.00
54270;BME280;40181;51.560;13.000;2023-05-07T02:08:52;101186.34;;;9.50;100.00
54270;BME280;40181;51.560;13.000;2023-05-07T02:11:23;101185.56;;;9.52;100.00
54270;BME280;40181;51.560;13.000;2023-05-07T02:13:53;101196.16;;;9.25;100.00
54270;BME280;40181;51.560;13.000;2023-05-07T02:16:22;101191.41;;;9.42;100.00
54270;BME280;40181;51.560;13.000;2023-05-07T02:18:51;101190.81;;;9.52;100.00
54270;BME280;40181;51.560;13.000;2023-05-07T02:21:20;101190.72;;;9.81;99.64
54270;BME280;40181;51.560;13.000;2023-05-07T02:23:49;101181.53;;;9.65;99.74
54270;BME280;40181;51.560;13.000;2023-05-07T02:26:18;101186.41;;;9.83;99.42
54270;BME280;40181;51.560;13.000;2023-05-07T02:28:50;101181.59;;;9.67;99.89
54270;BME280;40181;51.560;13.000;2023-05-07T02:31:19;101183.16;;;9.60;100.00
54270;BME280;40181;51.560;13.000;2023-05-07T02:33:48;101183.72;;;9.82;99.03
54270;BME280;40181;51.560;13.000;2023-05-07T02:36:17;101196.72;;;9.77;99.82
54270;BME280;40181;51.560;13.000;2023-05-07T02:38:46;101193.06;;;9.72;99.36
54270;BME280;40181;51.560;13.000;2023-05-07T02:41:15;101200.03;;;9.70;99.67
54270;BME280;40181;51.560;13.000;2023-05-07T02:43:45;101197.13;;;9.59;100.00
54270;BME280;40181;51.560;13.000;2023-05-07T02:46:16;101191.88;;;9.59;99.54
54270;BME280;40181;51.560;13.000;2023-05-07T02:48:45;101194.97;;;9.76;98.91
54270;BME280;40181;51.560;13.000;2023-05-07T02:51:14;101196.53;;;9.69;99.49
54270;BME280;40181;51.560;13.000;2023-05-07T02:53:45;101185.19;;;9.71;99.35
54270;BME280;40181;51.560;13.000;2023-05-07T02:56:14;101179.72;;;9.63;99.72
54270;BME280;40181;51.560;13.000;2023-05-07T02:58:43;101190.13;;;9.60;99.89
54270;BME280;40181;51.560;13.000;2023-05-07T03:01:13;101197.94;;;9.58;99.87
54270;BME280;40181;51.560;13.000;2023-05-07T03:03:44;101199.34;;;9.45;99.91
54270;BME280;40181;51.560;13.000;2023-05-07T03:06:13;101185.22;;;9.40;100.00
54270;BME280;40181;51.560;13.000;2023-05-07T03:08:43;101197.03;;;9.25;100.00
54270;BME280;40181;51.560;13.000;2023-05-07T03:11:12;101185.69;;;9.26;100.00
54270;BME280;40181;51.560;13.000;2023-05-07T03:13:41;101192.06;;;9.35;100.00
54270;BME280;40181;51.560;13.000;2023-05-07T03:16:10;101188.69;;;9.39;100.00
54270;BME280;40181;51.560;13.000;2023-05-07T03:18:39;101196.28;;;9.30;100.00
54270;BME280;40181;51.560;13.000;2023-05-07T03:21:11;101189.63;;;9.41;99.71
54270;BME280;40181;51.560;13.000;2023-05-07T03:23:40;101191.34;;;9.40;98.73
54270;BME280;40181;51.560;13.000;2023-05-07T03:26:09;101194.53;;;9.29;98.68
54270;BME280;40181;51.560;13.000;2023-05-07T03:28:38;101183.22;;;9.31;98.88
54270;BME280;40181;51.560;13.000;2023-05-07T03:31:07;101198.25;;;9.37;98.06
54270;BME280;40181;51.560;13.000;2023-05-07T03:33:49;101203.66;;;9.43;97.63
54270;BME280;40181;51.560;13.000;2023-05-07T03:36:22;101202.59;;;9.36;98.06
54270;BME280;40181;51.560;13.000;2023-05-07T03:38:51;101204.09;;;9.28;97.95
54270;BME280;40181;51.560;13.000;2023-05-07T03:41:21;101203.19;;;9.26;98.25
54270;BME280;40181;51.560;13.000;2023-05-07T03:43:50;101203.25;;;9.29;97.55
54270;BME280;40181;51.560;13.000;2023-05-07T03:46:20;101213.34;;;9.46;97.47
54270;BME280;40181;51.560;13.000;2023-05-07T03:48:51;101203.25;;;9.29;97.78
54270;BME280;40181;51.560;13.000;2023-05-07T03:51:23;101220.16;;;9.39;97.92
54270;BME280;40181;51.560;13.000;2023-05-07T03:53:52;101212.63;;;9.21;98.56
54270;BME280;40181;51.560;13.000;2023-05-07T03:56:22;101218.59;;;9.15;98.78
54270;BME280;40181;51.560;13.000;2023-05-07T03:58:51;101222.00;;;9.12;98.26
54270;BME280;40181;51.560;13.000;2023-05-07T04:01:20;101221.00;;;9.38;96.96
54270;BME280;40181;51.560;13.000;2023-05-07T04:03:49;101228.06;;;9.40;97.47
54270;BME280;40181;51.560;13.000;2023-05-07T04:06:18;101234.28;;;9.44;97.14
54270;BME280;40181;51.560;13.000;2023-05-07T04:08:50;101223.66;;;9.39;96.81
54270;BME280;40181;51.560;13.000;2023-05-07T04:11:19;101239.50;;;9.13;98.05
54270;BME280;40181;51.560;13.000;2023-05-07T04:13:48;101233.44;;;9.15;98.20
54270;BME280;40181;51.560;13.000;2023-05-07T04:16:17;101245.00;;;9.21;97.35
54270;BME280;40181;51.560;13.000;2023-05-07T04:18:46;101249.41;;;8.93;98.64
54270;BME280;40181;51.560;13.000;2023-05-07T04:21:17;101262.56;;;9.24;97.97
54270;BME280;40181;51.560;13.000;2023-05-07T04:23:50;101256.22;;;9.17;97.42
54270;BME280;40181;51.560;13.000;2023-05-07T04:26:19;101264.13;;;9.19;97.71
54270;BME280;40181;51.560;13.000;2023-05-07T04:28:49;101248.75;;;9.31;96.34
54270;BME280;40181;51.560;13.000;2023-05-07T04:31:18;101251.84;;;9.47;96.26
54270;BME280;40181;51.560;13.000;2023-05-07T04:33:47;101263.69;;;9.32;97.14
54270;BME280;40181;51.560;13.000;2023-05-07T04:36:16;101270.88;;;9.10;97.82
54270;BME280;40181;51.560;13.000;2023-05-07T04:38:46;101267.44;;;8.84;98.04
54270;BME280;40181;51.560;13.000;2023-05-07T04:41:18;101263.78;;;9.08;97.35
54270;BME280;40181;51.560;13.000;2023-05-07T04:43:47;101270.00;;;9.40;95.67
54270;BME280;40181;51.560;13.000;2023-05-07T04:46:16;101271.56;;;9.34;95.34
54270;BME280;40181;51.560;13.000;2023-05-07T04:48:45;101278.44;;;9.29;95.85
54270;BME280;40181;51.560;13.000;2023-05-07T04:51:14;101255.81;;;9.32;95.12
54270;BME280;40181;51.560;13.000;2023-05-07T04:53:43;101270.56;;;9.29;94.97
54270;BME280;40181;51.560;13.000;2023-05-07T04:56:15;101265.59;;;9.38;94.82
54270;BME280;40181;51.560;13.000;2023-05-07T04:58:45;101266.31;;;9.32;95.02
54270;BME280;40181;51.560;13.000;2023-05-07T05:01:14;101267.44;;;9.42;94.71
54270;BME280;40181;51.560;13.000;2023-05-07T05:03:43;101263.38;;;9.52;93.60
54270;BME280;40181;51.560;13.000;2023-05-07T05:06:12;101273.41;;;9.36;94.10
54270;BME280;40181;51.560;13.000;2023-05-07T05:08:41;101269.34;;;9.46;93.99
54270;BME280;40181;51.560;13.000;2023-05-07T05:11:10;101272.09;;;9.51;93.59
54270;BME280;40181;51.560;13.000;2023-05-07T05:13:42;101261.63;;;9.52;93.21
54270;BME280;40181;51.560;13.000;2023-05-07T05:16:14;101269.59;;;9.55;93.17
54270;BME280;40181;51.560;13.000;2023-05-07T05:18:43;101267.25;;;9.36;94.56
54270;BME280;40181;51.560;13.000;2023-05-07T05:21:12;101266.13;;;9.57;93.51
54270;BME280;40181;51.560;13.000;2023-05-07T05:23:41;101268.38;;;9.44;93.06
54270;BME280;40181;51.560;13.000;2023-05-07T05:26:10;101266.97;;;9.26;94.05
54270;BME280;40181;51.560;13.000;2023-05-07T05:28:42;101284.97;;;9.43;93.87
54270;BME280;40181;51.560;13.000;2023-05-07T05:31:11;101286.56;;;9.38;93.54
54270;BME280;40181;51.560;13.000;2023-05-07T05:33:40;101274.56;;;9.46;92.48
54270;BME280;40181;51.560;13.000;2023-05-07T05:36:10;101276.75;;;9.61;92.45
54270;BME280;40181;51.560;13.000;2023-05-07T05:38:39;101278.66;;;9.67;92.38
54270;BME280;40181;51.560;13.000;2023-05-07T05:41:09;101276.38;;;9.79;92.16
54270;BME280;40181;51.560;13.000;2023-05-07T05:43:38;101285.41;;;9.59;91.80
54270;BME280;40181;51.560;13.000;2023-05-07T05:46:09;101295.63;;;9.49;92.40
54270;BME280;40181;51.560;13.000;2023-05-07T05:48:38;101301.88;;;9.53;92.40
54270;BME280;40181;51.560;13.000;2023-05-07T05:51:08;101293.34;;;9.60;92.61
54270;BME280;40181;51.560;13.000;2023-05-07T05:53:37;101296.91;;;9.33;92.86
54270;BME280;40181;51.560;13.000;2023-05-07T05:56:06;101302.66;;;9.50;92.34
54270;BME280;40181;51.560;13.000;2023-05-07T05:58:36;101301.16;;;9.59;91.99
54270;BME280;40181;51.560;13.000;2023-05-07T06:01:07;101307.13;;;9.53;92.33
54270;BME280;40181;51.560;13.000;2023-05-07T06:03:37;101305.19;;;9.47;93.07
54270;BME280;40181;51.560;13.000;2023-05-07T06:06:06;101311.25;;;9.75;92.16
54270;BME280;40181;51.560;13.000;2023-05-07T06:08:35;101299.91;;;9.76;91.91
54270;BME280;40181;51.560;13.000;2023-05-07T06:11:04;101305.22;;;9.78;91.40
54270;BME280;40181;51.560;13.000;2023-05-07T06:13:36;101309.34;;;9.69;91.02
54270;BME280;40181;51.560;13.000;2023-05-07T06:16:08;101304.69;;;9.59;92.55
54270;BME280;40181;51.560;13.000;2023-05-07T06:18:37;101298.84;;;9.69;91.99
54270;BME280;40181;51.560;13.000;2023-05-07T06:21:06;101304.00;;;9.66;91.93
54270;BME280;40181;51.560;13.000;2023-05-07T06:23:35;101315.66;;;9.76;91.94
54270;BME280;40181;51.560;13.000;2023-05-07T06:26:06;101318.63;;;9.89;90.82
54270;BME280;40181;51.560;13.000;2023-05-07T06:28:35;101326.41;;;9.86;91.12
54270;BME280;40181;51.560;13.000;2023-05-07T06:31:17;101331.34;;;9.75;91.05
54270;BME280;40181;51.560;13.000;2023-05-07T06:33:49;101330.38;;;9.71;91.24
54270;BME280;40181;51.560;13.000;2023-05-07T06:36:18;101333.97;;;9.75;91.33
54270;BME280;40181;51.560;13.000;2023-05-07T06:38:47;101330.34;;;9.69;91.59
54270;BME280;40181;51.560;13.000;2023-05-07T06:41:16;101327.03;;;9.77;91.55
54270;BME280;40181;51.560;13.000;2023-05-07T06:43:45;101340.19;;;9.78;90.97
54270;BME280;40181;51.560;13.000;2023-05-07T06:46:17;101336.06;;;9.56;92.20
54270;BME280;40181;51.560;13.000;2023-05-07T06:48:46;101334.56;;;9.64;92.53
54270;BME280;40181;51.560;13.000;2023-05-07T06:51:15;101345.25;;;9.72;92.64
54270;BME280;40181;51.560;13.000;2023-05-07T06:53:44;101341.13;;;9.80;92.40
54270;BME280;40181;51.560;13.000;2023-05-07T06:56:13;101337.94;;;9.60;93.56
54270;BME280;40181;51.560;13.000;2023-05-07T06:58:42;101344.31;;;9.68;93.26
54270;BME280;40181;51.560;13.000;2023-05-07T07:01:11;101344.53;;;9.76;93.84
54270;BME280;40181;51.560;13.000;2023-05-07T07:03:42;101345.59;;;9.83;93.22
54270;BME280;40181;51.560;13.000;2023-05-07T07:06:12;101351.00;;;9.59;93.61
54270;BME280;40181;51.560;13.000;2023-05-07T07:08:41;101343.47;;;9.69;93.70
54270;BME280;40181;51.560;13.000;2023-05-07T07:11:10;101336.25;;;9.93;92.88
54270;BME280;40181;51.560;13.000;2023-05-07T07:13:40;101341.09;;;9.79;93.72
54270;BME280;40181;51.560;13.000;2023-05-07T07:16:09;101333.81;;;9.68;92.59
54270;BME280;40181;51.560;13.000;2023-05-07T07:18:38;101347.19;;;9.49;92.92
54270;BME280;40181;51.560;13.000;2023-05-07T07:21:09;101344.06;;;9.61;93.06
54270;BME280;40181;51.560;13.000;2023-05-07T07:23:39;101362.41;;;9.61;92.76
54270;BME280;40181;51.560;13.000;2023-05-07T07:26:08;101351.06;;;9.62;92.41
54270;BME280;40181;51.560;13.000;2023-05-07T07:28:42;101360.03;;;9.68;92.04
54270;BME280;40181;51.560;13.000;2023-05-07T07:31:11;101363.06;;;9.53;92.38
54270;BME280;40181;51.560;13.000;2023-05-07T07:33:41;101367.16;;;9.73;91.70
54270;BME280;40181;51.560;13.000;2023-05-07T07:36:12;101360.47;;;9.84;90.64
54270;BME280;40181;51.560;13.000;2023-05-07T07:38:41;101359.34;;;9.74;90.90
54270;BME280;40181;51.560;13.000;2023-05-07T07:41:10;101364.47;;;9.71;90.31
54270;BME280;40181;51.560;13.000;2023-05-07T07:43:39;101362.38;;;9.90;91.08
54270;BME280;40181;51.560;13.000;2023-05-07T07:46:08;101364.97;;;9.58;90.46
54270;BME280;40181;51.560;13.000;2023-05-07T07:48:37;101370.44;;;9.65;90.27
54270;BME280;40181;51.560;13.000;2023-05-07T07:51:06;101367.59;;;9.58;91.00
54270;BME280;40181;51.560;13.000;2023-05-07T07:53:38;101369.84;;;9.74;91.26
54270;BME280;40181;51.560;13.000;2023-05-07T07:56:07;101367.72;;;9.62;91.11
54270;BME280;40181;51.560;13.000;2023-05-07T07:58:36;101366.97;;;9.66;90.63
54270;BME280;40181;51.560;13.000;2023-05-07T08:01:05;101372.75;;;9.85;89.96
54270;BME280;40181;51.560;13.000;2023-05-07T08:03:35;101374.38;;;9.80;89.88
54270;BME280;40181;51.560;13.000;2023-05-07T08:06:04;101363.53;;;9.69;88.94
54270;BME280;40181;51.560;13.000;2023-05-07T08:08:33;101369.38;;;9.59;89.12
54270;BME280;40181;51.560;13.000;2023-05-07T08:11:05;101378.00;;;9.54;89.78
54270;BME280;40181;51.560;13.000;2023-05-07T08:13:34;101382.34;;;9.54;89.59
54270;BME280;40181;51.560;13.000;2023-05-07T08:16:04;101374.88;;;9.68;89.03
54270;BME280;40181;51.560;13.000;2023-05-07T08:18:33;101378.44;;;9.70;88.78
54270;BME280;40181;51.560;13.000;2023-05-07T08:21:02;101377.06;;;9.81;88.51
54270;BME280;40181;51.560;13.000;2023-05-07T08:23:32;101389.06;;;9.73;89.53
54270;BME280;40181;51.560;13.000;2023-05-07T08:26:01;101379.06;;;9.61;89.67
54270;BME280;40181;51.560;13.000;2023-05-07T08:28:33;101380.81;;;9.91;88.49
54270;BME280;40181;51.560;13.000;2023-05-07T08:31:02;101374.41;;;9.52;90.25
54270;BME280;40181;51.560;13.000;2023-05-07T08:33:31;101381.41;;;9.81;89.85
54270;BME280;40181;51.560;13.000;2023-05-07T08:36:00;101382.03;;;9.74;89.14
54270;BME280;40181;51.560;13.000;2023-05-07T08:38:29;101386.16;;;9.64;89.49
54270;BME280;40181;51.560;13.000;2023-05-07T08:40:58;101394.53;;;9.81;89.22
54270;BME280;40181;51.560;13.000;2023-05-07T08:43:31;101399.75;;;9.81;88.94
54270;BME280;40181;51.560;13.000;2023-05-07T08:46:02;101389.56;;;9.61;91.19
54270;BME280;40181;51.560;13.000;2023-05-07T08:48:32;101398.34;;;9.92;90.61
54270;BME280;40181;51.560;13.000;2023-05-07T08:51:02;101390.97;;;9.79;90.18
54270;BME280;40181;51.560;13.000;2023-05-07T08:53:31;101399.53;;;9.73;90.24
54270;BME280;40181;51.560;13.000;2023-05-07T08:56:01;101396.63;;;9.64;90.09
54270;BME280;40181;51.560;13.000;2023-05-07T08:58:34;101414.25;;;9.68;89.28
54270;BME280;40181;51.560;13.000;2023-05-07T09:01:07;101417.22;;;9.80;89.08
54270;BME280;40181;51.560;13.000;2023-05-07T09:03:37;101426.84;;;9.80;88.69
54270;BME280;40181;51.560;13.000;2023-05-07T09:06:07;101412.53;;;9.68;88.24
54270;BME280;40181;51.560;13.000;2023-05-07T09:08:36;101422.81;;;9.62;87.53
54270;BME280;40181;51.560;13.000;2023-05-07T09:11:05;101430.53;;;9.87;87.59
54270;BME280;40181;51.560;13.000;2023-05-07T09:13:37;101426.41;;;9.95;86.48
54270;BME280;40181;51.560;13.000;2023-05-07T09:16:13;101421.22;;;9.96;87.58
54270;BME280;40181;51.560;13.000;2023-05-07T09:18:43;101418.75;;;10.03;86.21
54270;BME280;40181;51.560;13.000;2023-05-07T09:21:14;101417.97;;;10.05;86.65
54270;BME280;40181;51.560;13.000;2023-05-07T09:23:44;101428.88;;;10.19;86.48
54270;BME280;40181;51.560;13.000;2023-05-07T09:26:14;101414.41;;;10.03;86.70
54270;BME280;40181;51.560;13.000;2023-05-07T09:28:45;101415.72;;;10.18;86.36
54270;BME280;40181;51.560;13.000;2023-05-07T09:31:14;101423.53;;;10.16;85.71
54270;BME280;40181;51.560;13.000;2023-05-07T09:33:44;101418.59;;;9.96;86.72
54270;BME280;40181;51.560;13.000;2023-05-07T09:36:13;101427.19;;;10.21;85.98
54270;BME280;40181;51.560;13.000;2023-05-07T09:38:45;101421.94;;;10.21;85.85
54270;BME280;40181;51.560;13.000;2023-05-07T09:41:14;101430.91;;;10.28;84.63
54270;BME280;40181;51.560;13.000;2023-05-07T09:43:46;101426.06;;;10.42;85.87
54270;BME280;40181;51.560;13.000;2023-05-07T09:46:25;101417.28;;;10.42;84.84
54270;BME280;40181;51.560;13.000;2023-05-07T09:48:58;101408.59;;;10.44;84.63
54270;BME280;40181;51.560;13.000;2023-05-07T09:51:34;101413.44;;;10.30;84.66
54270;BME280;40181;51.560;13.000;2023-05-07T09:54:10;101409.09;;;10.32;85.51
54270;BME280;40181;51.560;13.000;2023-05-07T09:56:39;101413.81;;;10.43;84.69
54270;BME280;40181;51.560;13.000;2023-05-07T09:59:13;101417.47;;;10.48;84.24
54270;BME280;40181;51.560;13.000;2023-05-07T10:01:44;101426.50;;;10.29;84.88
54270;BME280;40181;51.560;13.000;2023-05-07T10:04:13;101436.03;;;10.25;85.16
54270;BME280;40181;51.560;13.000;2023-05-07T10:06:44;101439.97;;;10.40;85.04
54270;BME280;40181;51.560;13.000;2023-05-07T10:09:13;101422.63;;;10.45;84.25
54270;BME280;40181;51.560;13.000;2023-05-07T10:11:43;101435.44;;;10.64;83.74
54270;BME280;40181;51.560;13.000;2023-05-07T10:14:15;101423.16;;;10.65;83.74
54270;BME280;40181;51.560;13.000;2023-05-07T10:16:47;101432.06;;;10.70;84.50
54270;BME280;40181;51.560;13.000;2023-05-07T10:19:16;101422.41;;;10.69;83.68
54270;BME280;40181;51.560;13.000;2023-05-07T10:21:51;101434.22;;;10.53;84.38
54270;BME280;40181;51.560;13.000;2023-05-07T10:24:26;101422.88;;;10.54;83.82
54270;BME280;40181;51.560;13.000;2023-05-07T10:26:59;101423.47;;;10.44;83.87
54270;BME280;40181;51.560;13.000;2023-05-07T10:29:36;101428.94;;;10.51;83.73
54270;BME280;40181;51.560;13.000;2023-05-07T10:32:22;101424.38;;;10.76;83.70
54270;BME280;40181;51.560;13.000;2023-05-07T10:35:01;101427.50;;;10.63;83.51
54270;BME280;40181;51.560;13.000;2023-05-07T10:37:31;101434.81;;;10.43;84.50
54270;BME280;40181;51.560;13.000;2023-05-07T10:40:01;101432.03;;;10.38;84.10
54270;BME280;40181;51.560;13.000;2023-05-07T10:42:32;101428.47;;;10.36;84.50
54270;BME280;40181;51.560;13.000;2023-05-07T10:45:14;101429.16;;;10.59;84.09
54270;BME280;40181;51.560;13.000;2023-05-07T10:48:08;101432.50;;;10.54;84.24
54270;BME280;40181;51.560;13.000;2023-05-07T10:50:39;101425.66;;;10.59;84.75
54270;BME280;40181;51.560;13.000;2023-05-07T10:53:24;101435.19;;;10.55;84.40
54270;BME280;40181;51.560;13.000;2023-05-07T10:56:24;101420.88;;;10.45;84.63
54270;BME280;40181;51.560;13.000;2023-05-07T11:02:09;101429.28;;;10.64;84.40
54270;BME280;40181;51.560;13.000;2023-05-07T11:04:40;101434.63;;;10.67;85.74
54270;BME280;40181;51.560;13.000;2023-05-07T11:07:30;101438.72;;;10.57;84.91
54270;BME280;40181;51.560;13.000;2023-05-07T11:10:02;101437.38;;;10.72;83.47
54270;BME280;40181;51.560;13.000;2023-05-07T11:12:49;101438.44;;;10.80;83.56
54270;BME280;40181;51.560;13.000;2023-05-07T11:15:41;101433.91;;;10.73;83.25
54270;BME280;40181;51.560;13.000;2023-05-07T11:18:15;101431.66;;;10.88;82.56
54270;BME280;40181;51.560;13.000;2023-05-07T11:20:53;101431.66;;;10.88;83.08
54270;BME280;40181;51.560;13.000;2023-05-07T11:23:56;101443.25;;;10.95;81.94
54270;BME280;40181;51.560;13.000;2023-05-07T11:26:28;101435.91;;;10.83;81.57
54270;BME280;40181;51.560;13.000;2023-05-07T11:29:00;101430.22;;;11.01;81.85
54270;BME280;40181;51.560;13.000;2023-05-07T11:31:29;101436.97;;;10.90;82.03
54270;BME280;40181;51.560;13.000;2023-05-07T11:34:01;101434.56;;;10.99;81.49
54270;BME280;40181;51.560;13.000;2023-05-07T11:36:32;101432.00;;;11.01;81.50
54270;BME280;40181;51.560;13.000;2023-05-07T11:39:01;101426.81;;;11.04;80.27
54270;BME280;40181;51.560;13.000;2023-05-07T11:41:34;101426.72;;;11.01;80.23
54270;BME280;40181;51.560;13.000;2023-05-07T11:44:04;101443.72;;;11.14;79.67
54270;BME280;40181;51.560;13.000;2023-05-07T11:46:33;101436.31;;;10.99;80.29
54270;BME280;40181;51.560;13.000;2023-05-07T11:49:05;101438.59;;;11.20;80.30
54270;BME280;40181;51.560;13.000;2023-05-07T11:51:34;101445.66;;;11.23;80.22
54270;BME280;40181;51.560;13.000;2023-05-07T11:54:04;101439.88;;;11.01;79.66
54270;BME280;40181;51.560;13.000;2023-05-07T11:56:37;101441.72;;;11.05;79.17
54270;BME280;40181;51.560;13.000;2023-05-07T11:59:06;101429.88;;;11.21;80.32
54270;BME280;40181;51.560;13.000;2023-05-07T12:01:35;101441.91;;;11.48;80.80
54270;BME280;40181;51.560;13.000;2023-05-07T12:04:07;101426.75;;;11.38;80.27
54270;BME280;40181;51.560;13.000;2023-05-07T12:06:37;101429.53;;;11.44;78.65
54270;BME280;40181;51.560;13.000;2023-05-07T12:09:07;101432.94;;;11.40;78.42
54270;BME280;40181;51.560;13.000;2023-05-07T12:11:36;101431.34;;;11.46;78.72
54270;BME280;40181;51.560;13.000;2023-05-07T12:14:07;101433.13;;;11.47;77.80
54270;BME280;40181;51.560;13.000;2023-05-07T12:16:36;101447.34;;;11.56;78.45
54270;BME280;40181;51.560;13.000;2023-05-07T12:19:08;101436.19;;;11.66;79.00
54270;BME280;40181;51.560;13.000;2023-05-07T12:21:39;101432.44;;;11.56;78.89
54270;BME280;40181;51.560;13.000;2023-05-07T12:24:08;101432.41;;;11.55;77.48
54270;BME280;40181;51.560;13.000;2023-05-07T12:26:38;101441.59;;;11.72;77.28
54270;BME280;40181;51.560;13.000;2023-05-07T12:29:08;101440.66;;;11.70;76.46
54270;BME280;40181;51.560;13.000;2023-05-07T12:31:40;101421.66;;;11.84;77.13
54270;BME280;40181;51.560;13.000;2023-05-07T12:34:13;101423.03;;;11.66;76.65
54270;BME280;40181;51.560;13.000;2023-05-07T12:36:42;101432.34;;;11.92;76.71
54270;BME280;40181;51.560;13.000;2023-05-07T12:39:11;101432.50;;;11.98;75.09
54270;BME280;40181;51.560;13.000;2023-05-07T12:41:53;101420.00;;;11.87;76.10
54270;BME280;40181;51.560;13.000;2023-05-07T12:44:23;101425.09;;;11.80;75.58
54270;BME280;40181;51.560;13.000;2023-05-07T12:46:53;101416.81;;;12.02;75.60
54270;BME280;40181;51.560;13.000;2023-05-07T12:49:25;101414.09;;;11.99;75.01
54270;BME280;40181;51.560;13.000;2023-05-07T12:51:54;101424.50;;;11.93;75.35
54270;BME280;40181;51.560;13.000;2023-05-07T12:54:29;101417.94;;;12.14;74.51
54270;BME280;40181;51.560;13.000;2023-05-07T12:57:02;101428.75;;;11.88;74.48
54270;BME280;40181;51.560;13.000;2023-05-07T12:59:33;101428.03;;;11.95;74.75
54270;BME280;40181;51.560;13.000;2023-05-07T13:02:03;101416.25;;;12.17;75.14
54270;BME280;40181;51.560;13.000;2023-05-07T13:04:35;101416.66;;;12.38;74.73
54270;BME280;40181;51.560;13.000;2023-05-07T13:07:05;101412.06;;;12.29;73.43